Time;durP1;ratioP1;P1;durP2;ratioP2;P2;SDS_P1;SDS_P2;PMS_P1;PMS_P2;Temp;Humidity;BMP_temperature;BMP_pressure;BME280_temperature;BME280_humidity;BME280_pressure;Samples;Min_cycle;Max_cycle;Signal;HPM_P1;HPM_P2
2022/10/06 00:00:41;;;;;;;14.25;1.67;;;;;;;8.36;87.96;101227.97;5025798;28;20038;-73
2022/10/06 00:03:06;;;;;;;16.08;1.85;;;;;;;8.33;88.10;101228.44;5014528;28;20064;-73
2022/10/06 00:05:32;;;;;;;13.02;2.17;;;;;;;8.27;88.59;101223.94;5030738;28;20143;-73
2022/10/06 00:07:59;;;;;;;15.25;2.47;;;;;;;8.28;88.31;101236.47;5028521;28;20081;-73
2022/10/06 00:10:24;;;;;;;9.32;1.42;;;;;;;8.23;88.60;101239.91;5039897;28;20309;-74
2022/10/06 00:12:51;;;;;;;15.48;3.13;;;;;;;8.17;88.44;101233.47;5029084;28;20030;-74
2022/10/06 00:15:20;;;;;;;10.50;1.50;;;;;;;8.20;88.30;101243.09;5006901;28;20036;-73
2022/10/06 00:17:45;;;;;;;12.30;2.20;;;;;;;8.18;88.84;101247.94;5055403;28;20049;-74
2022/10/06 00:20:11;;;;;;;11.55;1.80;;;;;;;8.16;88.53;101245.44;5050329;28;20029;-72
2022/10/06 00:22:47;;;;;;;14.10;2.47;;;;;;;8.14;88.85;101253.00;5043677;28;20038;-73
2022/10/06 00:25:16;;;;;;;10.93;1.67;;;;;;;8.12;89.15;101260.59;5032640;28;20026;-70
2022/10/06 00:27:46;;;;;;;13.90;1.77;;;;;;;8.05;88.82;101259.84;5024994;28;20810;-72
2022/10/06 00:30:19;;;;;;;13.32;2.13;;;;;;;7.98;89.25;101259.09;5013058;28;20049;-72
2022/10/06 00:32:59;;;;;;;13.25;2.55;;;;;;;7.94;89.12;101269.59;5034436;28;20027;-73
2022/10/06 00:35:32;;;;;;;10.18;2.50;;;;;;;7.90;89.40;101273.84;5009048;28;20033;-71
2022/10/06 00:37:58;;;;;;;7.70;1.52;;;;;;;7.84;89.90;101281.03;5037657;28;20017;-72
2022/10/06 00:40:24;;;;;;;17.52;2.10;;;;;;;7.81;90.16;101281.50;5046573;28;20036;-73
2022/10/06 00:43:17;;;;;;;8.40;1.88;;;;;;;7.76;90.29;101277.78;5006318;28;20037;-73
2022/10/06 00:45:46;;;;;;;8.13;1.77;;;;;;;7.70;90.55;101279.50;4986237;28;20053;-72
2022/10/06 00:48:18;;;;;;;14.50;1.88;;;;;;;7.64;90.64;101275.78;5023408;28;20032;-73
2022/10/06 00:50:45;;;;;;;6.68;1.58;;;;;;;7.60;91.32;101284.66;5030801;28;20039;-72
2022/10/06 00:53:11;;;;;;;9.80;1.40;;;;;;;7.57;91.11;101285.09;5036774;28;20024;-72
2022/10/06 00:55:36;;;;;;;7.53;1.55;;;;;;;7.55;91.57;101293.50;5012798;28;20048;-73
2022/10/06 00:58:04;;;;;;;14.13;2.10;;;;;;;7.56;91.12;101297.03;4991196;28;20023;-74
2022/10/06 01:00:30;;;;;;;10.00;1.90;;;;;;;7.50;91.87;101291.44;4992744;28;20100;-73
2022/10/06 01:03:10;;;;;;;11.88;2.10;;;;;;;7.51;92.23;101297.72;5001802;28;20062;-73
2022/10/06 01:05:45;;;;;;;5.95;1.58;;;;;;;7.46;91.78;101297.53;4991173;28;20025;-74
2022/10/06 01:08:11;;;;;;;8.20;1.65;;;;;;;7.44;92.50;101300.47;5028445;28;20030;-74
2022/10/06 01:10:37;;;;;;;14.93;1.80;;;;;;;7.42;91.92;101294.44;5025583;28;20137;-74
2022/10/06 01:13:02;;;;;;;8.85;1.60;;;;;;;7.37;92.37;101294.28;5019036;28;20040;-74
2022/10/06 01:15:28;;;;;;;6.60;1.30;;;;;;;7.34;92.34;101302.88;5020196;28;20030;-73
2022/10/06 01:18:03;;;;;;;8.02;1.60;;;;;;;7.29;93.33;101305.44;5051861;28;20026;-74
2022/10/06 01:20:28;;;;;;;5.78;1.20;;;;;;;7.25;92.68;101315.09;4934223;28;20063;-74
2022/10/06 01:23:04;;;;;;;11.57;2.22;;;;;;;7.20;93.45;101317.66;4934956;28;20023;-75
2022/10/06 01:25:31;;;;;;;17.95;2.38;;;;;;;7.16;93.51;101320.81;4929796;28;20030;-74
2022/10/06 01:27:59;;;;;;;18.90;2.45;;;;;;;7.17;94.11;101332.56;4908140;28;20043;-74
2022/10/06 01:30:45;;;;;;;12.95;2.63;;;;;;;7.19;94.06;101326.88;4984005;28;20022;-72
2022/10/06 01:33:10;;;;;;;12.73;2.08;;;;;;;7.12;93.85;101322.31;5040154;28;20025;-73
2022/10/06 01:35:36;;;;;;;11.63;1.75;;;;;;;7.09;94.39;101330.91;5026049;28;20033;-71
2022/10/06 01:38:02;;;;;;;11.68;2.15;;;;;;;7.03;94.30;101323.63;5034825;28;20096;-72
2022/10/06 01:40:28;;;;;;;11.82;1.67;;;;;;;6.98;94.14;101331.66;5024675;28;20029;-73
2022/10/06 01:42:54;;;;;;;6.47;1.70;;;;;;;6.93;93.78;101345.06;5035189;28;20036;-72
2022/10/06 01:45:19;;;;;;;10.48;1.40;;;;;;;6.84;94.67;101330.06;5018730;28;20372;-73
2022/10/06 01:47:45;;;;;;;9.55;1.45;;;;;;;6.85;94.69;101337.13;5028350;28;20069;-72
2022/10/06 01:50:11;;;;;;;6.68;1.90;;;;;;;6.97;94.75;101349.00;5053786;28;20032;-74
2022/10/06 01:52:36;;;;;;;8.48;1.88;;;;;;;7.07;94.09;101345.81;5052919;28;20033;-73
2022/10/06 01:55:03;;;;;;;14.60;1.95;;;;;;;7.03;94.44;101350.00;5035720;28;20022;-73
2022/10/06 01:57:29;;;;;;;6.68;1.38;;;;;;;6.95;93.98;101348.38;5012497;28;20018;-74
2022/10/06 01:59:58;;;;;;;6.85;1.80;;;;;;;6.82;94.67;101338.44;5028556;28;20094;-73
2022/10/06 02:02:30;;;;;;;10.40;1.58;;;;;;;6.75;95.12;101345.78;5028151;28;20093;-72
2022/10/06 02:04:58;;;;;;;7.10;1.52;;;;;;;6.69;95.23;101361.09;5032749;28;20052;-74
2022/10/06 02:07:27;;;;;;;8.55;1.42;;;;;;;6.69;94.98;101358.38;5041797;28;20048;-74
2022/10/06 02:09:53;;;;;;;9.23;1.73;;;;;;;6.67;95.78;101360.44;5044350;28;20021;-75
2022/10/06 02:12:18;;;;;;;9.13;1.77;;;;;;;6.64;95.44;101366.31;5036392;28;20542;-72
2022/10/06 02:14:44;;;;;;;7.18;1.58;;;;;;;6.60;96.30;101367.81;5030768;28;20121;-73
2022/10/06 02:17:09;;;;;;;10.10;1.98;;;;;;;6.54;96.02;101361.38;5042404;28;20025;-72
2022/10/06 02:19:35;;;;;;;10.95;2.22;;;;;;;6.46;95.72;101357.00;5000725;28;20025;-73
2022/10/06 02:22:01;;;;;;;14.57;2.42;;;;;;;6.41;95.86;101373.13;5021396;28;20032;-75
2022/10/06 02:24:27;;;;;;;11.45;2.58;;;;;;;6.34;96.51;101366.88;5013709;28;20029;-75
2022/10/06 02:26:52;;;;;;;15.48;2.78;;;;;;;6.29;96.29;101366.69;5035514;28;20036;-73
2022/10/06 02:29:19;;;;;;;9.55;2.45;;;;;;;6.27;96.52;101374.22;5043285;28;20032;-73
2022/10/06 02:31:55;;;;;;;8.88;2.28;;;;;;;6.19;96.84;101371.72;5003984;28;20022;-75
2022/10/06 02:34:28;;;;;;;12.07;2.20;;;;;;;6.14;97.11;101366.13;5033798;28;20367;-74
2022/10/06 02:37:10;;;;;;;15.43;2.30;;;;;;;6.08;97.35;101370.53;5061798;28;20266;-74
2022/10/06 02:39:46;;;;;;;10.82;1.92;;;;;;;6.10;97.26;101377.41;5014793;28;20040;-75
2022/10/06 02:42:11;;;;;;;9.32;1.55;;;;;;;6.06;97.71;101376.16;4985339;28;20034;-74
2022/10/06 02:44:36;;;;;;;13.68;2.13;;;;;;;6.10;98.34;101385.56;5006365;28;20032;-73
2022/10/06 02:47:03;;;;;;;7.93;1.52;;;;;;;6.10;98.37;101382.84;5003409;28;20031;-72
2022/10/06 02:49:30;;;;;;;10.63;2.03;;;;;;;6.11;98.69;101386.38;5018286;28;20126;-73
2022/10/06 02:51:55;;;;;;;8.35;1.60;;;;;;;6.16;98.99;101388.47;5013136;28;20034;-71
2022/10/06 02:54:21;;;;;;;11.75;2.35;;;;;;;6.15;98.73;101394.94;4991624;28;20035;-72
2022/10/06 02:56:49;;;;;;;14.85;1.88;;;;;;;6.10;98.79;101388.28;4994574;28;20480;-71
2022/10/06 02:59:14;;;;;;;10.18;1.85;;;;;;;6.14;99.15;101396.00;5019108;28;20036;-72
2022/10/06 03:01:39;;;;;;;10.57;2.08;;;;;;;6.10;99.03;101391.00;5046246;28;20085;-71
2022/10/06 03:04:05;;;;;;;9.60;1.20;;;;;;;6.09;99.14;101393.94;5007787;28;20038;-71
2022/10/06 03:06:31;;;;;;;10.63;1.42;;;;;;;6.08;99.72;101401.22;5021289;28;20029;-71
2022/10/06 03:09:02;;;;;;;8.77;1.67;;;;;;;6.08;99.80;101403.09;5045536;28;20097;-73
2022/10/06 03:11:31;;;;;;;12.48;1.95;;;;;;;6.07;99.90;101402.25;5006124;28;20026;-70
2022/10/06 03:13:57;;;;;;;6.95;1.23;;;;;;;6.12;100.00;101409.78;5028417;28;20036;-72
2022/10/06 03:16:24;;;;;;;8.75;1.52;;;;;;;6.17;99.56;101406.44;5051449;28;20017;-72
2022/10/06 03:18:51;;;;;;;7.30;1.45;;;;;;;6.17;99.58;101407.25;5022954;28;20033;-71
2022/10/06 03:21:18;;;;;;;12.57;2.03;;;;;;;6.18;100.00;101403.50;5022120;28;20117;-72
2022/10/06 03:23:46;;;;;;;12.82;1.67;;;;;;;6.22;99.74;101404.75;5020240;28;20057;-73
2022/10/06 03:26:14;;;;;;;10.02;1.83;;;;;;;6.26;99.43;101410.56;5034192;28;20112;-72
2022/10/06 03:28:39;;;;;;;18.60;2.63;;;;;;;6.32;100.00;101415.16;5050753;28;20023;-72
2022/10/06 03:31:05;;;;;;;7.70;1.70;;;;;;;6.40;100.00;101414.94;5028648;28;20050;-70
2022/10/06 03:33:32;;;;;;;8.85;1.80;;;;;;;6.46;100.00;101419.50;5034148;28;20093;-73
2022/10/06 03:36:10;;;;;;;13.43;2.05;;;;;;;6.49;99.55;101426.41;5022030;28;20086;-73
2022/10/06 03:38:35;;;;;;;10.88;1.73;;;;;;;6.45;99.41;101425.16;5039922;28;20024;-71
2022/10/06 03:41:13;;;;;;;11.18;1.55;;;;;;;6.39;98.64;101431.44;5009634;28;20033;-73
2022/10/06 03:43:40;;;;;;;12.80;1.60;;;;;;;6.32;99.38;101426.00;5025846;28;20018;-72
2022/10/06 03:46:06;;;;;;;8.10;1.83;;;;;;;6.25;98.07;101430.63;5016822;28;20033;-72
2022/10/06 03:48:34;;;;;;;9.85;2.25;;;;;;;6.18;98.96;101432.56;5016924;28;20108;-72
2022/10/06 03:51:01;;;;;;;9.75;1.92;;;;;;;6.10;98.69;101434.44;5019945;28;20053;-73
2022/10/06 03:53:28;;;;;;;14.68;2.15;;;;;;;6.06;98.52;101449.50;5025729;28;20060;-72
2022/10/06 03:56:07;;;;;;;7.63;2.00;;;;;;;6.00;99.23;101450.34;5017698;28;20045;-74
2022/10/06 03:58:35;;;;;;;9.45;1.65;;;;;;;5.95;99.16;101452.81;5030124;28;20116;-73
2022/10/06 04:01:03;;;;;;;11.95;2.00;;;;;;;5.92;98.88;101447.78;5024329;28;20022;-72
2022/10/06 04:03:28;;;;;;;13.50;1.98;;;;;;;5.87;99.24;101444.84;5036049;28;20041;-73
2022/10/06 04:05:55;;;;;;;9.50;1.73;;;;;;;5.85;100.00;101455.09;5057233;28;20087;-73
2022/10/06 04:08:22;;;;;;;12.13;2.05;;;;;;;5.85;100.00;101455.09;5033906;28;20388;-73
2022/10/06 04:10:48;;;;;;;12.68;2.08;;;;;;;5.88;99.67;101466.38;5039483;28;20179;-73
2022/10/06 04:13:18;;;;;;;10.80;2.28;;;;;;;5.85;100.00;101468.69;5022197;28;20023;-72
2022/10/06 04:15:45;;;;;;;12.43;2.20;;;;;;;5.84;100.00;101467.00;5023337;28;20036;-73
2022/10/06 04:18:12;;;;;;;13.27;1.95;;;;;;;5.83;100.00;101471.59;5026844;28;20045;-74
2022/10/06 04:20:37;;;;;;;14.48;1.55;;;;;;;5.85;100.00;101479.53;5032802;28;20037;-73
2022/10/06 04:23:04;;;;;;;11.82;1.73;;;;;;;5.86;100.00;101481.22;5023897;28;20053;-72
2022/10/06 04:25:41;;;;;;;9.38;1.95;;;;;;;5.80;100.00;101477.44;5029946;28;20155;-74
2022/10/06 04:28:15;;;;;;;18.02;2.03;;;;;;;5.76;100.00;101466.16;5028742;28;20036;-76
2022/10/06 04:30:53;;;;;;;;;;;;;;;5.84;100.00;101472.44;5020106;28;20046;-75
2022/10/06 04:33:26;;;;;;;12.25;2.00;;;;;;;5.83;100.00;101476.22;5044037;28;19913;-72
2022/10/06 04:36:03;;;;;;;14.10;2.28;;;;;;;5.85;100.00;101476.81;5041781;28;20107;-74
2022/10/06 04:38:36;;;;;;;9.48;1.60;;;;;;;5.73;100.00;101461.16;5042116;28;20029;-74
2022/10/06 04:41:11;;;;;;;8.27;1.67;;;;;;;5.76;100.00;101471.59;5042049;28;20022;-73
2022/10/06 04:43:42;;;;;;;;;;;;;;;5.81;100.00;101483.72;5041565;28;20045;-76
2022/10/06 04:46:19;;;;;;;8.02;1.83;;;;;;;5.77;100.00;101484.13;5058426;28;20354;-73
2022/10/06 04:48:46;;;;;;;8.13;1.77;;;;;;;5.77;100.00;101494.16;5011569;28;20033;-72
2022/10/06 04:51:25;;;;;;;9.30;2.17;;;;;;;5.77;100.00;101494.97;5036537;28;20064;-72
2022/10/06 04:53:54;;;;;;;14.90;2.30;;;;;;;5.81;100.00;101500.00;5036837;28;20030;-72
2022/10/06 04:56:22;;;;;;;11.63;2.17;;;;;;;5.85;100.00;101490.41;5034294;28;20033;-71
2022/10/06 04:58:52;;;;;;;7.45;1.27;;;;;;;5.87;100.00;101493.72;5040534;28;20006;-72
2022/10/06 05:01:28;;;;;;;6.93;1.63;;;;;;;5.87;100.00;101488.28;5056099;28;20011;-71
2022/10/06 05:03:58;;;;;;;12.95;2.03;;;;;;;5.88;100.00;101490.78;5058985;28;20128;-72
2022/10/06 05:06:43;;;;;;;11.55;2.33;;;;;;;5.91;100.00;101494.97;5040125;28;20005;-73
2022/10/06 05:09:16;;;;;;;9.15;1.40;;;;;;;5.88;100.00;101492.69;5055152;28;20029;-73
2022/10/06 05:11:42;;;;;;;11.20;1.83;;;;;;;5.84;100.00;101489.56;5035045;28;20014;-72
2022/10/06 05:14:07;;;;;;;11.10;2.08;;;;;;;5.88;100.00;101504.38;5009840;28;20433;-72
2022/10/06 05:16:35;;;;;;;17.98;2.05;;;;;;;5.85;100.00;101503.97;5021134;28;20034;-73
2022/10/06 05:19:01;;;;;;;14.90;1.83;;;;;;;5.84;100.00;101510.44;5028527;28;20038;-73
2022/10/06 05:21:28;;;;;;;11.15;1.65;;;;;;;5.80;100.00;101514.59;5015118;28;20061;-73
2022/10/06 05:23:54;;;;;;;17.67;1.85;;;;;;;5.79;100.00;101516.50;5029067;28;20045;-72
2022/10/06 05:26:22;;;;;;;7.93;1.75;;;;;;;5.75;100.00;101513.38;5044781;28;20423;-73
2022/10/06 05:28:48;;;;;;;11.23;2.03;;;;;;;5.74;100.00;101519.00;5022576;28;20086;-73
2022/10/06 05:31:26;;;;;;;8.52;1.88;;;;;;;5.74;100.00;101517.13;5045895;28;20049;-71
2022/10/06 05:33:52;;;;;;;7.43;1.55;;;;;;;5.72;100.00;101519.22;5021341;28;20024;-74
2022/10/06 05:36:20;;;;;;;16.55;2.60;;;;;;;5.75;100.00;101523.38;5019351;28;20025;-72
2022/10/06 05:38:46;;;;;;;9.40;1.88;;;;;;;5.73;100.00;101518.16;5033075;28;20026;-73
2022/10/06 05:41:16;;;;;;;12.77;2.15;;;;;;;5.67;100.00;101527.13;5017640;28;20130;-72
2022/10/06 05:43:42;;;;;;;10.48;1.90;;;;;;;5.65;100.00;101537.38;5027470;28;20550;-72
2022/10/06 05:46:16;;;;;;;11.93;1.88;;;;;;;5.63;100.00;101536.72;5032559;28;20060;-72
2022/10/06 05:48:43;;;;;;;4.53;1.25;;;;;;;5.54;100.00;101537.97;5037195;28;20044;-73
2022/10/06 05:51:09;;;;;;;6.68;1.58;;;;;;;5.47;100.00;101540.66;5024047;28;20057;-72
2022/10/06 05:53:35;;;;;;;3.28;1.10;;;;;;;5.47;100.00;101542.53;5019063;28;20439;-72
2022/10/06 05:56:05;;;;;;;6.85;1.55;;;;;;;5.49;100.00;101541.28;5022828;28;20384;-71
2022/10/06 05:58:32;;;;;;;11.45;1.83;;;;;;;5.56;100.00;101547.56;5005837;28;20026;-73
2022/10/06 06:01:38;;;;;;;14.30;1.80;;;;;;;5.66;100.00;101547.16;5019069;28;20476;-73
2022/10/06 06:04:06;;;;;;;11.25;1.58;;;;;;;5.77;100.00;101560.13;5021257;28;20072;-73
2022/10/06 06:06:44;;;;;;;7.78;1.67;;;;;;;5.86;100.00;101557.22;5038326;28;20030;-73
2022/10/06 06:09:15;;;;;;;10.77;1.90;;;;;;;5.91;100.00;101563.72;5027060;28;20022;-72
2022/10/06 06:11:53;;;;;;;15.32;1.83;;;;;;;5.95;100.00;101561.41;5012369;28;20068;-70
2022/10/06 06:17:10;;;;;;;11.57;1.70;;;;;;;5.93;100.00;101553.47;5014969;28;20096;-74
2022/10/06 06:19:39;;;;;;;13.18;1.48;;;;;;;5.99;100.00;101568.13;5007327;28;20017;-74
2022/10/06 06:22:04;;;;;;;11.55;1.60;;;;;;;6.01;100.00;101555.16;5026652;28;20033;-71
2022/10/06 06:24:30;;;;;;;8.35;1.85;;;;;;;6.06;100.00;101566.25;5033071;28;20030;-71
2022/10/06 06:26:55;;;;;;;12.90;1.90;;;;;;;6.14;100.00;101569.81;5040146;28;20029;-71
2022/10/06 06:29:22;;;;;;;8.40;1.33;;;;;;;6.19;100.00;101567.28;5026275;28;20034;-72
2022/10/06 06:31:48;;;;;;;12.35;1.65;;;;;;;6.24;100.00;101581.09;5007394;28;20049;-73
2022/10/06 06:34:14;;;;;;;13.80;1.85;;;;;;;6.31;100.00;101571.06;5043147;28;20033;-70
2022/10/06 06:36:42;;;;;;;11.50;1.48;;;;;;;6.38;99.36;101576.47;5037225;28;20029;-71
2022/10/06 06:39:12;;;;;;;11.55;1.85;;;;;;;6.50;98.52;101579.41;5042170;28;20033;-72
2022/10/06 06:41:40;;;;;;;19.23;1.98;;;;;;;6.61;98.60;101592.34;5032890;28;20413;-71
2022/10/06 06:44:09;;;;;;;11.48;1.52;;;;;;;6.70;97.54;101595.69;5033980;28;20097;-72
2022/10/06 06:46:35;;;;;;;10.95;1.40;;;;;;;6.76;97.50;101595.69;5024444;28;20005;-73
2022/10/06 06:49:04;;;;;;;11.95;2.15;;;;;;;6.86;96.76;101595.22;5048031;28;20037;-72
2022/10/06 06:51:33;;;;;;;8.25;2.10;;;;;;;6.93;97.09;101590.59;5016915;28;20427;-74
2022/10/06 06:54:01;;;;;;;7.03;1.80;;;;;;;7.00;96.10;101590.59;5030857;28;20133;-73
2022/10/06 06:56:33;;;;;;;12.27;1.80;;;;;;;7.09;95.83;101596.66;5029026;28;20287;-72
2022/10/06 06:59:00;;;;;;;9.32;1.35;;;;;;;7.20;95.48;101603.28;5026073;28;20611;-73
2022/10/06 07:01:27;;;;;;;11.05;1.95;;;;;;;7.24;95.11;101596.38;5017250;28;20079;-75
2022/10/06 07:03:59;;;;;;;6.45;1.45;;;;;;;7.36;94.63;101594.69;5010451;28;20483;-72
2022/10/06 07:06:28;;;;;;;15.02;1.90;;;;;;;7.47;94.00;101602.13;5052918;28;20032;-72
2022/10/06 07:08:54;;;;;;;11.40;1.48;;;;;;;7.58;93.52;101608.81;5019506;28;20060;-72
2022/10/06 07:11:34;;;;;;;6.97;1.70;;;;;;;7.66;93.41;101603.09;5047666;28;20017;-73
2022/10/06 07:14:05;;;;;;;10.85;1.92;;;;;;;7.89;92.52;101609.06;5039650;28;20009;-72
2022/10/06 07:25:10;;;;;;;10.07;1.50;;;;;;;8.70;89.02;101630.06;5043147;28;20055;-74
2022/10/06 07:27:49;;;;;;;13.82;1.70;;;;;;;8.94;88.78;101629.41;5007935;28;20207;-72
2022/10/06 07:30:24;;;;;;;11.43;1.77;;;;;;;9.53;87.88;101636.06;5029148;28;20430;-74
2022/10/06 07:32:51;;;;;;;14.27;1.95;;;;;;;10.45;84.72;101642.34;5012926;28;20553;-73
2022/10/06 07:35:19;;;;;;;9.35;1.63;;;;;;;11.69;78.76;101641.25;5017778;28;20057;-74
2022/10/06 07:37:45;;;;;;;16.35;1.88;;;;;;;12.98;73.58;101646.25;5019773;28;20021;-73
2022/10/06 07:40:11;;;;;;;11.05;1.50;;;;;;;14.19;68.30;101648.25;5026656;28;20088;-73
2022/10/06 07:42:50;;;;;;;18.73;2.20;;;;;;;14.99;64.13;101654.69;5024709;28;20030;-72
2022/10/06 07:45:43;;;;;;;7.88;1.70;;;;;;;15.80;61.84;101655.41;5038345;28;20037;-73
2022/10/06 07:48:16;;;;;;;9.80;1.88;;;;;;;16.71;58.71;101663.22;5020756;28;20025;-72
2022/10/06 07:50:44;;;;;;;4.70;1.40;;;;;;;17.46;56.47;101662.50;5037962;28;20021;-73
2022/10/06 07:53:10;;;;;;;5.70;1.23;;;;;;;18.36;54.07;101668.13;5026263;28;20029;-73
2022/10/06 07:55:38;;;;;;;6.53;1.30;;;;;;;18.98;52.59;101674.81;5033581;28;20483;-72
2022/10/06 07:58:12;;;;;;;2.92;0.73;;;;;;;19.73;51.21;101685.59;5037107;28;20051;-73
2022/10/06 08:00:39;;;;;;;11.88;1.23;;;;;;;20.16;48.72;101680.03;5000698;28;20224;-73
2022/10/06 08:03:04;;;;;;;8.88;1.27;;;;;;;20.83;47.05;101687.34;4998859;28;20188;-73
2022/10/06 08:05:31;;;;;;;7.45;1.63;;;;;;;21.28;44.92;101687.59;5015358;28;20088;-73
2022/10/06 08:07:57;;;;;;;7.10;1.88;;;;;;;21.43;45.24;101689.25;5022335;28;20036;-74
2022/10/06 08:10:22;;;;;;;4.75;1.30;;;;;;;22.03;44.43;101696.63;5016615;28;20026;-73
2022/10/06 08:12:54;;;;;;;5.78;2.20;;;;;;;22.71;43.01;101699.50;5011503;28;20827;-72
2022/10/06 08:15:20;;;;;;;8.38;1.65;;;;;;;23.50;42.01;101700.72;5035136;28;20047;-74
2022/10/06 08:17:45;;;;;;;6.40;1.70;;;;;;;23.82;40.04;101709.84;4997960;28;20034;-73
2022/10/06 08:20:12;;;;;;;11.80;2.03;;;;;;;23.74;40.03;101707.84;5019039;28;20029;-74
2022/10/06 08:22:38;;;;;;;9.40;1.88;;;;;;;24.15;40.39;101712.25;5036870;28;20108;-73
2022/10/06 08:25:41;;;;;;;11.23;2.55;;;;;;;24.39;37.65;101710.94;5020665;28;20022;-80
2022/10/06 08:28:07;;;;;;;12.50;3.40;;;;;;;23.38;38.37;101692.16;5002218;28;20037;-74
2022/10/06 08:30:33;;;;;;;16.30;2.63;;;;;;;23.16;39.66;101696.66;5000427;28;20036;-73
2022/10/06 08:32:59;;;;;;;7.85;2.55;;;;;;;23.80;39.12;101714.13;5041670;28;20084;-73
2022/10/06 08:35:24;;;;;;;8.95;1.60;;;;;;;24.97;38.13;101714.34;5015072;28;20049;-73
2022/10/06 08:37:51;;;;;;;6.85;1.98;;;;;;;25.95;36.21;101708.78;5001203;28;20097;-73
2022/10/06 08:40:16;;;;;;;11.00;1.90;;;;;;;26.38;34.54;101714.41;5024734;28;20022;-72
2022/10/06 08:42:47;;;;;;;7.05;1.90;;;;;;;26.85;33.92;101711.34;5000768;28;20040;-73
2022/10/06 08:45:39;;;;;;;10.00;2.05;;;;;;;27.12;33.08;101712.69;5021633;28;20013;-73
2022/10/06 08:48:15;;;;;;;5.03;2.10;;;;;;;27.39;32.21;101707.59;5035830;28;20040;-72
2022/10/06 08:51:18;;;;;;;6.90;1.77;;;;;;;27.63;32.28;101706.78;5018208;28;20044;-72
2022/10/06 08:54:02;;;;;;;5.50;1.98;;;;;;;27.82;31.83;101708.97;5039755;28;20036;-72
2022/10/06 08:56:53;;;;;;;7.68;1.42;;;;;;;28.10;31.89;101715.88;5036390;28;20040;-73
2022/10/06 08:59:54;;;;;;;6.78;1.90;;;;;;;29.19;31.37;101712.06;5037519;28;20018;-73
2022/10/06 09:02:47;;;;;;;6.32;2.00;;;;;;;30.85;28.51;101698.88;4958436;28;20057;-72
2022/10/06 09:05:25;;;;;;;6.35;1.45;;;;;;;31.07;27.68;101715.03;5016316;28;20029;-76
2022/10/06 09:08:13;;;;;;;8.80;2.08;;;;;;;31.73;27.63;101714.09;4981272;28;20038;-72
2022/10/06 09:10:57;;;;;;;4.43;1.30;;;;;;;31.63;27.51;101704.28;5031646;28;20024;-74
2022/10/06 09:13:33;;;;;;;6.57;1.45;;;;;;;31.65;27.45;101710.38;5032874;28;20018;-74
2022/10/06 09:16:16;;;;;;;5.90;1.60;;;;;;;32.17;27.10;101717.19;5026755;28;20060;-76
2022/10/06 09:18:54;;;;;;;6.82;1.77;;;;;;;32.36;26.27;101709.75;5039904;28;20395;-72
2022/10/06 09:21:46;;;;;;;5.60;1.90;;;;;;;32.94;25.46;101718.88;5031093;28;20020;-73
2022/10/06 09:24:38;;;;;;;12.07;2.35;;;;;;;32.95;25.00;101714.84;5016370;28;20566;-73
2022/10/06 09:27:32;;;;;;;8.88;2.30;;;;;;;31.95;25.17;101715.22;5032962;28;20029;-71
2022/10/06 09:30:00;;;;;;;10.85;2.45;;;;;;;31.00;26.28;101709.25;5020900;28;20614;-72
2022/10/06 09:32:28;;;;;;;8.38;1.55;;;;;;;30.08;26.75;101716.28;5036558;28;20037;-73
2022/10/06 09:34:58;;;;;;;13.10;2.28;;;;;;;30.11;27.57;101718.34;5026264;28;20021;-73
2022/10/06 09:37:25;;;;;;;8.88;1.80;;;;;;;30.06;28.35;101727.09;5034156;28;20049;-72
2022/10/06 09:39:51;;;;;;;8.60;1.98;;;;;;;29.41;27.68;101722.75;5019795;28;20033;-72
2022/10/06 09:42:19;;;;;;;8.57;2.05;;;;;;;29.25;28.73;101727.56;5038572;28;20108;-73
2022/10/06 09:44:56;;;;;;;24.45;2.38;;;;;;;29.98;27.96;101739.41;5020385;28;20032;-73
2022/10/06 09:47:27;;;;;;;12.98;1.73;;;;;;;29.58;27.48;101737.63;5026200;28;20048;-73
2022/10/06 09:50:11;;;;;;;10.35;1.90;;;;;;;30.00;27.84;101734.22;5018917;28;20091;-72
2022/10/06 09:52:41;;;;;;;11.30;2.13;;;;;;;30.59;27.45;101731.44;5043195;28;20637;-73
2022/10/06 09:55:16;;;;;;;10.57;2.03;;;;;;;31.59;26.17;101731.69;5034182;28;20029;-74
2022/10/06 09:57:52;;;;;;;8.38;1.75;;;;;;;31.99;25.71;101733.91;5039638;28;20147;-72
2022/10/06 10:00:28;;;;;;;6.65;1.63;;;;;;;31.91;25.39;101737.00;5035748;28;20512;-73
2022/10/06 10:03:11;;;;;;;7.78;1.50;;;;;;;31.48;25.57;101737.94;5039000;28;20403;-72
2022/10/06 10:05:48;;;;;;;14.63;2.13;;;;;;;31.20;26.21;101743.91;5009339;28;20037;-73
2022/10/06 10:08:21;;;;;;;9.07;1.90;;;;;;;30.96;26.36;101730.97;5017814;28;20026;-72
2022/10/06 10:13:56;;;;;;;11.00;1.60;;;;;;;32.02;24.37;101735.13;5036558;28;20032;-72
2022/10/06 10:16:29;;;;;;;13.27;2.08;;;;;;;29.94;27.51;101735.69;5020628;28;20442;-71
2022/10/06 10:18:55;;;;;;;8.90;2.00;;;;;;;30.28;27.43;101727.56;5022263;28;20032;-72
2022/10/06 10:21:28;;;;;;;14.05;1.90;;;;;;;30.75;26.83;101734.19;5043502;28;20043;-73
2022/10/06 10:24:22;;;;;;;12.25;2.30;;;;;;;32.39;24.74;101728.78;5024887;28;20022;-75
2022/10/06 10:26:59;;;;;;;11.40;1.33;;;;;;;33.10;23.94;101727.13;5041649;28;20021;-73
2022/10/06 10:29:30;;;;;;;7.68;1.52;;;;;;;33.55;23.42;101736.44;5043262;28;20048;-73
2022/10/06 10:32:12;;;;;;;10.00;2.00;;;;;;;34.38;23.31;101736.97;5038712;28;20091;-73
2022/10/06 10:35:05;;;;;;;8.07;2.00;;;;;;;33.90;22.83;101733.03;5042561;28;20036;-74
2022/10/06 10:37:39;;;;;;;12.48;2.17;;;;;;;29.66;27.46;101725.34;5023144;28;20041;-73
2022/10/06 10:40:16;;;;;;;;;;;;;;;26.59;31.56;101732.03;5025876;28;20036;-73
2022/10/06 10:42:59;;;;;;;8.98;1.75;;;;;;;27.60;33.12;101707.50;5055629;28;19916;-73
2022/10/06 10:45:34;;;;;;;6.32;1.35;;;;;;;30.18;28.45;101719.69;5030795;28;20813;-74
2022/10/06 10:48:05;;;;;;;6.88;1.60;;;;;;;29.66;28.15;101724.53;5027756;28;20078;-74
2022/10/06 10:50:47;;;;;;;6.93;1.58;;;;;;;29.13;28.89;101724.81;5020710;28;20566;-73
2022/10/06 10:53:33;;;;;;;7.93;1.90;;;;;;;30.90;27.58;101723.97;5044513;28;20021;-74
2022/10/06 10:55:59;;;;;;;10.68;2.08;;;;;;;33.09;24.30;101737.66;5022583;28;20021;-73
2022/10/06 10:58:33;;;;;;;6.82;1.65;;;;;;;34.21;22.51;101732.81;5018473;28;20740;-72
2022/10/06 11:01:24;;;;;;;12.63;1.92;;;;;;;34.14;22.28;101721.41;5023407;28;20021;-74
2022/10/06 11:03:55;;;;;;;8.30;1.95;;;;;;;32.49;23.73;101713.94;5006424;28;20077;-74
2022/10/06 11:06:23;;;;;;;13.32;1.77;;;;;;;32.11;24.50;101712.19;5024848;28;20129;-73
2022/10/06 11:09:00;;;;;;;11.80;1.90;;;;;;;29.97;26.16;101723.69;5015900;28;20121;-73
2022/10/06 11:11:48;;;;;;;6.60;2.00;;;;;;;29.36;28.46;101717.38;5023281;28;20585;-73
2022/10/06 11:14:32;;;;;;;7.78;1.50;;;;;;;32.24;24.87;101715.63;5039366;28;20029;-74
2022/10/06 11:17:14;;;;;;;9.68;1.75;;;;;;;31.83;24.22;101717.09;5030494;28;20094;-74
2022/10/06 11:20:03;;;;;;;4.50;1.38;;;;;;;30.48;25.58;101699.41;5028943;28;20021;-75
2022/10/06 11:22:43;;;;;;;10.50;1.70;;;;;;;31.22;24.84;101713.28;5019770;28;20030;-75
2022/10/06 11:25:26;;;;;;;11.70;2.05;;;;;;;28.99;27.84;101761.84;5026347;28;20069;-75
2022/10/06 11:28:00;;;;;;;8.27;1.50;;;;;;;27.41;31.12;101724.09;5052803;28;20036;-74
2022/10/06 11:30:34;;;;;;;11.23;1.90;;;;;;;29.03;28.34;101701.63;5008368;28;20032;-75
2022/10/06 11:33:14;;;;;;;10.40;1.73;;;;;;;31.04;25.45;101707.31;5031666;28;20027;-74
2022/10/06 11:35:43;;;;;;;8.45;1.63;;;;;;;31.53;25.51;101699.22;5026679;28;20114;-74
2022/10/06 11:38:28;;;;;;;6.07;1.65;;;;;;;32.14;24.24;101700.97;5041347;28;20029;-74
2022/10/06 11:41:07;;;;;;;7.65;1.70;;;;;;;30.49;26.61;101701.84;5022440;28;20008;-73
2022/10/06 11:43:59;;;;;;;5.05;1.60;;;;;;;33.50;22.93;101699.94;5043782;28;20022;-75
2022/10/06 11:46:42;;;;;;;6.38;1.25;;;;;;;32.39;23.74;101703.31;5042363;28;20072;-75
2022/10/06 11:49:33;;;;;;;7.15;1.17;;;;;;;33.86;22.62;101718.06;5018354;28;20026;-75
2022/10/06 11:52:10;;;;;;;9.15;1.42;;;;;;;36.07;20.79;101704.94;5032756;28;20018;-74
2022/10/06 11:54:55;;;;;;;5.90;1.30;;;;;;;35.72;19.04;101698.13;5040115;28;20009;-73
2022/10/06 11:57:27;;;;;;;7.88;1.30;;;;;;;34.60;20.85;101700.94;5024676;28;20040;-74
2022/10/06 11:59:59;;;;;;;5.78;1.52;;;;;;;33.64;21.74;101688.69;5059533;28;20029;-73